createdAt,value
2023-01-30T00:01:12.711Z,13.88
2023-01-30T00:03:39.383Z,17.02
2023-01-30T00:06:06.096Z,15.52
2023-01-30T00:08:32.619Z,12.82
2023-01-30T00:11:05.175Z,17.20
2023-01-30T00:13:31.828Z,14.63
2023-01-30T00:15:58.408Z,15.52
2023-01-30T00:18:25.060Z,20.40
2023-01-30T00:20:59.736Z,14.60
2023-01-30T00:23:27.171Z,15.30
2023-01-30T00:25:54.224Z,16.27
2023-01-30T00:28:20.867Z,15.13
2023-01-30T00:30:52.441Z,18.42
2023-01-30T00:33:20.195Z,15.13
2023-01-30T00:35:47.829Z,17.55
2023-01-30T00:38:14.939Z,17.83
2023-01-30T00:40:41.844Z,16.75
2023-01-30T00:43:30.907Z,15.05
2023-01-30T00:46:16.785Z,15.43
2023-01-30T00:48:43.366Z,19.25
2023-01-30T00:51:09.969Z,19.05
2023-01-30T00:53:36.519Z,10.30
2023-01-30T00:56:03.439Z,17.65
2023-01-30T00:58:30.062Z,18.23
2023-01-30T01:00:56.767Z,13.30
2023-01-30T01:03:23.594Z,18.88
2023-01-30T01:05:50.291Z,14.45
2023-01-30T01:08:16.949Z,18.00
2023-01-30T01:10:43.538Z,14.68
2023-01-30T01:13:11.245Z,13.60
2023-01-30T01:15:38.177Z,16.00
2023-01-30T01:18:05.503Z,15.55
2023-01-30T01:20:32.032Z,14.93
2023-01-30T01:22:58.731Z,18.35
2023-01-30T01:25:25.738Z,20.02
2023-01-30T01:27:53.772Z,15.15
2023-01-30T01:30:20.506Z,14.77
2023-01-30T01:32:47.127Z,15.32
2023-01-30T01:35:13.711Z,22.02
2023-01-30T01:37:40.342Z,16.58
2023-01-30T01:40:26.689Z,18.50
2023-01-30T01:42:53.321Z,14.48
2023-01-30T01:45:24.586Z,14.45
2023-01-30T01:48:20.857Z,15.48
2023-01-30T01:50:55.942Z,18.88
2023-01-30T01:53:29.264Z,14.18
2023-01-30T01:56:00.060Z,16.63
2023-01-30T01:58:45.982Z,22.25
2023-01-30T02:01:12.677Z,19.17
2023-01-30T02:03:44.805Z,13.68
2023-01-30T02:06:13.019Z,18.67
2023-01-30T02:08:44.794Z,21.30
2023-01-30T02:11:22.940Z,12.90
2023-01-30T02:13:50.721Z,16.63
2023-01-30T02:16:21.022Z,14.60
2023-01-30T02:18:48.382Z,15.82
2023-01-30T02:21:18.026Z,19.00
2023-01-30T02:24:17.147Z,18.52
2023-01-30T02:27:04.132Z,19.30
2023-01-30T02:29:49.853Z,15.98
2023-01-30T02:32:22.543Z,10.95
2023-01-30T02:35:07.661Z,13.50
2023-01-30T02:37:47.286Z,17.08
2023-01-30T02:41:10.234Z,17.90
2023-01-30T02:43:44.614Z,17.48
2023-01-30T02:46:14.298Z,15.80
2023-01-30T02:48:51.266Z,16.38
2023-01-30T02:51:19.629Z,16.00
2023-01-30T02:53:48.582Z,11.93
2023-01-30T02:56:15.719Z,14.45
2023-01-30T02:58:52.936Z,18.67
2023-01-30T03:01:39.008Z,13.55
2023-01-30T03:04:26.475Z,13.38
2023-01-30T03:07:02.550Z,14.43
2023-01-30T03:09:51.313Z,18.90
2023-01-30T03:12:30.696Z,18.52
2023-01-30T03:15:08.517Z,19.35
2023-01-30T03:17:37.062Z,16.40
2023-01-30T03:20:04.333Z,18.58
2023-01-30T03:22:32.036Z,17.65
2023-01-30T03:24:58.852Z,13.27
2023-01-30T03:27:25.678Z,21.52
2023-01-30T03:29:52.539Z,17.35
2023-01-30T03:32:20.179Z,17.23
2023-01-30T03:34:46.996Z,16.98
2023-01-30T03:37:13.652Z,16.10
2023-01-30T03:39:40.328Z,18.38
2023-01-30T03:42:07.315Z,16.58
2023-01-30T03:44:33.938Z,17.50
2023-01-30T03:47:00.532Z,17.60
2023-01-30T03:49:28.216Z,19.35
2023-01-30T03:51:56.250Z,16.92
2023-01-30T03:54:22.874Z,18.40
2023-01-30T03:56:49.578Z,20.85
2023-01-30T03:59:16.453Z,13.73
2023-01-30T04:01:49.882Z,18.13
2023-01-30T04:04:16.728Z,14.50
2023-01-30T04:06:43.389Z,13.55
2023-01-30T04:09:10.207Z,18.58
2023-01-30T04:11:41.922Z,15.05
2023-01-30T04:14:08.552Z,17.52
2023-01-30T04:16:44.438Z,14.25
2023-01-30T04:19:29.684Z,15.15
2023-01-30T04:21:56.418Z,15.90
2023-01-30T04:24:23.037Z,15.25
2023-01-30T04:26:49.679Z,13.75
2023-01-30T04:29:16.307Z,18.67
2023-01-30T04:31:44.724Z,18.05
2023-01-30T04:34:23.579Z,21.50
2023-01-30T04:36:50.134Z,15.93
2023-01-30T04:39:17.402Z,16.15
2023-01-30T04:41:44.030Z,14.57
2023-01-30T04:44:10.776Z,13.77
2023-01-30T04:46:50.880Z,13.15
2023-01-30T04:49:17.541Z,19.35
2023-01-30T04:51:44.122Z,14.43
2023-01-30T04:54:10.698Z,17.33
2023-01-30T04:56:37.265Z,15.82
2023-01-30T04:59:05.296Z,15.60
2023-01-30T05:01:39.379Z,15.63
2023-01-30T05:04:07.489Z,15.25
2023-01-30T05:06:35.093Z,15.00
2023-01-30T05:09:01.834Z,17.40
2023-01-30T05:11:30.143Z,10.85
2023-01-30T05:13:56.709Z,12.52
2023-01-30T05:16:24.107Z,15.65
2023-01-30T05:18:50.975Z,19.52
2023-01-30T05:21:23.577Z,14.25
2023-01-30T05:23:51.129Z,12.02
2023-01-30T05:26:17.688Z,12.38
2023-01-30T05:28:44.455Z,14.82
2023-01-30T05:31:13.230Z,16.27
2023-01-30T05:33:40.833Z,16.77
2023-01-30T05:36:08.753Z,13.50
2023-01-30T05:38:35.276Z,14.82
2023-01-30T05:41:06.261Z,13.68
2023-01-30T05:43:33.975Z,13.23
2023-01-30T05:46:02.129Z,12.43
2023-01-30T05:48:29.057Z,17.08
2023-01-30T05:50:58.540Z,13.13
2023-01-30T05:53:28.515Z,14.57
2023-01-30T05:55:59.896Z,11.73
2023-01-30T05:58:27.710Z,12.68
2023-01-30T06:00:54.602Z,12.60
2023-01-30T06:03:21.410Z,9.85
2023-01-30T06:05:47.986Z,12.32
2023-01-30T06:08:14.548Z,10.30
2023-01-30T06:10:41.135Z,13.57
2023-01-30T06:13:07.817Z,9.57
2023-01-30T06:15:37.130Z,10.27
2023-01-30T06:18:03.799Z,14.02
2023-01-30T06:20:30.411Z,10.60
2023-01-30T06:22:57.100Z,15.88
2023-01-30T06:25:23.685Z,10.80
2023-01-30T06:27:50.249Z,11.70
2023-01-30T06:30:17.008Z,14.13
2023-01-30T06:32:43.615Z,11.75
2023-01-30T06:35:10.215Z,12.57
2023-01-30T06:37:36.782Z,11.18
2023-01-30T06:40:03.539Z,14.10
2023-01-30T06:42:30.112Z,15.10
2023-01-30T06:44:56.639Z,8.25
2023-01-30T06:47:23.384Z,10.55
2023-01-30T06:49:49.927Z,10.48
2023-01-30T06:52:16.575Z,10.80
2023-01-30T06:54:43.149Z,10.98
2023-01-30T06:57:09.779Z,12.57
2023-01-30T06:59:36.341Z,12.52
2023-01-30T07:02:02.963Z,7.82
2023-01-30T07:04:32.458Z,12.52
2023-01-30T07:06:59.146Z,12.90
2023-01-30T07:09:25.722Z,12.95
2023-01-30T07:11:52.324Z,9.57
2023-01-30T07:14:18.962Z,12.00
2023-01-30T07:16:45.579Z,8.75
2023-01-30T07:19:12.250Z,11.98
2023-01-30T07:21:38.776Z,16.05
2023-01-30T07:24:05.578Z,10.32
2023-01-30T07:26:32.194Z,10.60
2023-01-30T07:28:58.771Z,8.88
2023-01-30T07:31:25.380Z,7.38
2023-01-30T07:33:52.028Z,14.38
2023-01-30T07:36:18.600Z,11.60
2023-01-30T07:38:45.227Z,15.10
2023-01-30T07:41:11.780Z,14.30
2023-01-30T07:43:38.306Z,9.38
2023-01-30T07:46:05.016Z,14.07
2023-01-30T07:48:31.584Z,11.93
2023-01-30T07:50:58.133Z,10.48
2023-01-30T07:53:24.995Z,8.32
2023-01-30T07:55:51.631Z,10.50
2023-01-30T07:58:18.171Z,9.05
2023-01-30T08:00:45.062Z,10.25
2023-01-30T08:03:16.847Z,14.40
2023-01-30T08:05:46.801Z,13.20
2023-01-30T08:08:13.702Z,15.68
2023-01-30T08:10:40.265Z,13.65
2023-01-30T08:13:06.783Z,12.35
2023-01-30T08:15:33.591Z,13.82
2023-01-30T08:18:00.301Z,12.68
2023-01-30T08:20:27.837Z,12.95
2023-01-30T08:22:55.238Z,11.95
2023-01-30T08:25:22.517Z,10.68
2023-01-30T08:27:49.308Z,16.00
2023-01-30T08:30:17.949Z,11.25
2023-01-30T08:32:44.767Z,10.18
2023-01-30T08:35:11.555Z,11.52
2023-01-30T08:37:41.915Z,16.27
2023-01-30T08:40:09.446Z,15.00
2023-01-30T08:42:36.018Z,10.82
2023-01-30T08:45:02.696Z,13.15
2023-01-30T08:47:29.252Z,7.00
2023-01-30T08:49:55.847Z,9.15
2023-01-30T08:52:22.402Z,10.45
2023-01-30T08:54:49.022Z,12.25
2023-01-30T08:57:15.950Z,13.48
2023-01-30T08:59:43.293Z,8.05
2023-01-30T09:02:11.361Z,9.00
2023-01-30T09:04:38.111Z,7.90
2023-01-30T09:07:04.839Z,10.43
2023-01-30T09:09:31.439Z,14.02
2023-01-30T09:11:57.993Z,11.48
2023-01-30T09:14:24.679Z,16.23
2023-01-30T09:16:55.837Z,11.38
2023-01-30T09:19:27.078Z,12.18
2023-01-30T09:21:55.190Z,7.70
2023-01-30T09:24:26.601Z,8.38
2023-01-30T09:26:58.835Z,12.07
2023-01-30T09:29:26.256Z,10.30
2023-01-30T09:31:56.031Z,11.75
2023-01-30T09:34:28.425Z,9.00
2023-01-30T09:36:56.927Z,10.48
2023-01-30T09:39:23.576Z,11.82
2023-01-30T09:41:53.092Z,9.57
2023-01-30T09:44:41.150Z,8.30
2023-01-30T09:47:13.745Z,10.25
2023-01-30T09:49:53.429Z,7.15
2023-01-30T09:52:52.694Z,9.50
2023-01-30T09:55:32.448Z,7.68
2023-01-30T09:58:00.587Z,6.57
2023-01-30T10:00:34.007Z,7.40
2023-01-30T10:03:11.908Z,10.90
2023-01-30T10:06:16.847Z,6.85
2023-01-30T10:08:55.752Z,5.85
2023-01-30T10:11:36.790Z,9.48
2023-01-30T10:14:25.713Z,7.87
2023-01-30T10:17:17.310Z,7.93
2023-01-30T10:19:59.411Z,11.48
2023-01-30T10:22:54.734Z,11.07
2023-01-30T10:25:53.808Z,9.30
2023-01-30T10:28:23.059Z,8.05
2023-01-30T10:30:52.645Z,7.80
2023-01-30T10:33:25.073Z,10.15
2023-01-30T10:36:06.418Z,7.07
2023-01-30T10:38:40.608Z,5.75
2023-01-30T10:41:19.201Z,8.65
2023-01-30T10:43:54.678Z,7.97
2023-01-30T10:46:51.342Z,8.48
2023-01-30T10:49:42.081Z,4.88
2023-01-30T10:52:30.196Z,6.05
2023-01-30T10:55:37.332Z,6.30
2023-01-30T10:58:23.595Z,5.45
2023-01-30T11:01:01.145Z,7.30
2023-01-30T11:03:48.069Z,7.25
2023-01-30T11:06:23.783Z,7.47
2023-01-30T11:08:51.638Z,7.13
2023-01-30T11:11:48.141Z,6.63
2023-01-30T11:14:14.810Z,5.88
2023-01-30T11:16:54.433Z,5.40
2023-01-30T11:19:32.642Z,7.93
2023-01-30T11:22:05.126Z,5.97
2023-01-30T11:24:41.409Z,4.60
2023-01-30T11:27:25.139Z,6.63
2023-01-30T11:30:03.670Z,5.45
2023-01-30T11:32:30.256Z,5.78
2023-01-30T11:35:03.071Z,4.47
2023-01-30T11:37:42.084Z,3.97
2023-01-30T11:40:23.851Z,8.27
2023-01-30T11:43:12.071Z,4.00
2023-01-30T11:45:50.228Z,5.75
2023-01-30T11:48:34.150Z,4.90
2023-01-30T11:51:11.172Z,6.43
2023-01-30T11:53:39.862Z,6.18
2023-01-30T11:56:17.096Z,7.95
2023-01-30T11:58:49.722Z,5.55
2023-01-30T12:01:17.331Z,7.50
2023-01-30T12:03:54.343Z,5.93
2023-01-30T12:06:30.042Z,4.65
2023-01-30T12:08:56.830Z,5.47
2023-01-30T12:11:32.253Z,8.35
2023-01-30T12:14:25.520Z,7.18
2023-01-30T12:17:04.315Z,5.65
2023-01-30T12:19:33.827Z,5.40
2023-01-30T12:22:22.037Z,5.57
2023-01-30T12:25:01.167Z,4.95
2023-01-30T12:27:49.090Z,5.43
2023-01-30T12:30:36.934Z,4.75
2023-01-30T12:33:06.791Z,6.80
2023-01-30T12:35:53.068Z,7.95
2023-01-30T12:38:31.991Z,8.55
2023-01-30T12:41:45.240Z,5.60
2023-01-30T12:44:42.485Z,4.03
2023-01-30T12:47:33.511Z,5.32
2023-01-30T12:50:12.207Z,5.43
2023-01-30T12:52:57.482Z,5.95
2023-01-30T12:55:32.869Z,3.08
2023-01-30T12:58:07.549Z,3.65
2023-01-30T13:00:45.190Z,4.18
2023-01-30T13:03:55.398Z,1.85
2023-01-30T13:07:06.267Z,2.28
2023-01-30T13:09:38.476Z,3.88
2023-01-30T13:12:20.259Z,4.53
2023-01-30T13:14:57.910Z,4.47
2023-01-30T13:17:41.840Z,2.05
2023-01-30T13:20:31.402Z,3.47
2023-01-30T13:23:06.493Z,2.78
2023-01-30T13:25:42.728Z,2.70
2023-01-30T13:28:33.577Z,3.58
2023-01-30T13:31:00.622Z,7.60
2023-01-30T13:33:33.693Z,2.75
2023-01-30T13:36:27.336Z,2.47
2023-01-30T13:38:55.893Z,3.70
2023-01-30T13:41:24.391Z,3.35
2023-01-30T13:43:53.806Z,2.30
2023-01-30T13:46:27.499Z,3.03
2023-01-30T13:49:03.117Z,4.35
2023-01-30T13:51:41.834Z,2.67
2023-01-30T13:54:32.914Z,2.50
2023-01-30T13:57:25.166Z,2.13
2023-01-30T14:00:16.883Z,4.00
2023-01-30T14:03:27.857Z,1.58
2023-01-30T14:06:06.265Z,2.20
2023-01-30T14:08:45.549Z,3.03
2023-01-30T14:11:37.161Z,3.58
2023-01-30T14:14:21.613Z,1.88
2023-01-30T14:16:51.935Z,4.53
2023-01-30T14:19:39.610Z,2.25
2023-01-30T14:22:39.613Z,4.65
2023-01-30T14:25:56.496Z,1.63
2023-01-30T14:28:29.444Z,1.85
2023-01-30T14:30:59.103Z,3.33
2023-01-30T14:33:25.646Z,3.75
2023-01-30T14:35:58.247Z,3.88
2023-01-30T14:38:56.312Z,5.00
2023-01-30T14:41:28.128Z,3.75
2023-01-30T14:46:21.369Z,4.38
2023-01-30T14:48:49.943Z,5.68
2023-01-30T14:51:35.907Z,2.00
2023-01-30T14:54:13.052Z,2.30
2023-01-30T14:57:05.529Z,3.88
2023-01-30T15:02:44.136Z,3.00
2023-01-30T15:05:15.166Z,3.13
2023-01-30T15:07:44.864Z,7.03
2023-01-30T15:10:33.093Z,2.47
2023-01-30T15:13:08.805Z,3.53
2023-01-30T15:15:44.197Z,1.95
2023-01-30T15:18:36.672Z,3.03
2023-01-30T15:21:03.165Z,2.85
2023-01-30T15:23:51.420Z,3.53
2023-01-30T15:26:28.920Z,3.60
2023-01-30T15:29:32.479Z,5.25
2023-01-30T15:32:01.900Z,4.32
2023-01-30T15:34:34.378Z,3.58
2023-01-30T15:37:00.992Z,4.63
2023-01-30T15:39:28.399Z,5.18
2023-01-30T15:42:05.942Z,4.93
2023-01-30T15:44:51.374Z,3.90
2023-01-30T15:47:35.866Z,4.13
2023-01-30T15:50:10.218Z,6.30
2023-01-30T15:52:36.673Z,5.40
2023-01-30T15:55:03.943Z,4.03
2023-01-30T15:57:36.337Z,4.55
2023-01-30T16:00:06.884Z,4.68
2023-01-30T16:02:42.552Z,5.30
2023-01-30T16:05:18.674Z,4.05
2023-01-30T16:07:47.657Z,3.00
2023-01-30T16:10:20.988Z,5.40
2023-01-30T16:12:49.948Z,5.43
2023-01-30T16:15:32.121Z,8.40
2023-01-30T16:18:27.049Z,6.22
2023-01-30T16:21:02.467Z,5.72
2023-01-30T16:23:58.241Z,6.72
2023-01-30T16:26:24.881Z,4.85
2023-01-30T16:29:03.506Z,3.55
2023-01-30T16:31:35.701Z,6.07
2023-01-30T16:34:02.780Z,4.15
2023-01-30T16:36:33.119Z,4.82
2023-01-30T16:39:00.206Z,3.05
2023-01-30T16:41:36.373Z,4.28
2023-01-30T16:44:24.451Z,8.05
2023-01-30T16:47:04.623Z,5.55
2023-01-30T16:49:37.120Z,5.28
2023-01-30T16:52:22.578Z,5.47
2023-01-30T16:54:54.998Z,4.72
2023-01-30T16:57:28.618Z,5.32
2023-01-30T16:59:56.218Z,7.32
2023-01-30T17:02:42.611Z,3.58
2023-01-30T17:05:18.107Z,4.97
2023-01-30T17:07:45.426Z,4.47
2023-01-30T17:10:40.126Z,5.75
2023-01-30T17:13:27.525Z,4.60
2023-01-30T17:15:54.749Z,3.65
2023-01-30T17:18:21.367Z,6.47
2023-01-30T17:20:51.255Z,2.58
2023-01-30T17:23:20.795Z,6.53
2023-01-30T17:25:49.326Z,5.03
2023-01-30T17:28:21.130Z,4.43
2023-01-30T17:33:15.081Z,6.13
2023-01-30T17:35:41.746Z,4.70
2023-01-30T17:38:10.469Z,5.68
2023-01-30T17:40:38.047Z,4.80
2023-01-30T17:43:05.522Z,4.88
2023-01-30T17:45:32.071Z,4.35
2023-01-30T17:47:59.078Z,6.32
2023-01-30T17:50:28.547Z,3.22
2023-01-30T17:52:55.208Z,3.78
2023-01-30T17:55:24.541Z,6.90
2023-01-30T17:57:51.214Z,6.38
2023-01-30T18:00:20.170Z,9.23
2023-01-30T18:02:47.144Z,4.68
2023-01-30T18:05:14.020Z,5.45
2023-01-30T18:07:42.409Z,3.65
2023-01-30T18:10:15.381Z,5.15
2023-01-30T18:12:42.753Z,6.57
2023-01-30T18:15:10.327Z,6.72
2023-01-30T18:17:43.615Z,5.65
2023-01-30T18:20:12.910Z,3.97
2023-01-30T18:22:39.496Z,3.95
2023-01-30T18:25:06.688Z,3.90
2023-01-30T18:27:35.650Z,6.47
2023-01-30T18:30:03.336Z,4.82
2023-01-30T18:32:30.766Z,4.53
2023-01-30T18:35:00.906Z,5.20
2023-01-30T18:37:29.213Z,4.03
2023-01-30T18:39:55.775Z,4.43
2023-01-30T18:42:22.363Z,4.65
2023-01-30T18:44:49.062Z,4.00
2023-01-30T18:47:15.726Z,4.90
2023-01-30T18:49:42.270Z,4.47
2023-01-30T18:52:08.816Z,5.38
2023-01-30T18:54:37.128Z,4.35
2023-01-30T18:57:03.710Z,4.57
2023-01-30T18:59:30.268Z,5.05
2023-01-30T19:01:56.832Z,4.35
2023-01-30T19:04:23.379Z,5.53
2023-01-30T19:06:49.980Z,4.75
2023-01-30T19:09:18.939Z,4.45
2023-01-30T19:12:04.132Z,4.60
2023-01-30T19:14:30.951Z,3.67
2023-01-30T19:16:57.586Z,3.58
2023-01-30T19:19:24.163Z,6.22
2023-01-30T19:21:52.190Z,5.78
2023-01-30T19:24:19.238Z,4.78
2023-01-30T19:26:45.851Z,7.15
2023-01-30T19:29:12.498Z,4.28
2023-01-30T19:31:39.342Z,5.93
2023-01-30T19:34:08.828Z,5.43
2023-01-30T19:36:36.590Z,2.58
2023-01-30T19:39:05.981Z,5.32
2023-01-30T19:41:35.909Z,4.60
2023-01-30T19:44:05.115Z,5.03
2023-01-30T19:46:32.250Z,4.45
2023-01-30T19:48:58.978Z,3.45
2023-01-30T19:51:28.778Z,4.97
2023-01-30T19:53:58.135Z,7.18
2023-01-30T19:56:26.205Z,4.45
2023-01-30T19:58:58.743Z,4.47
2023-01-30T20:01:29.510Z,4.13
2023-01-30T20:03:57.311Z,5.00
2023-01-30T20:06:27.859Z,3.50
2023-01-30T20:08:58.215Z,5.97
2023-01-30T20:11:24.757Z,4.13
2023-01-30T20:13:53.201Z,5.25
2023-01-30T20:16:22.510Z,3.63
2023-01-30T20:18:54.896Z,4.03
2023-01-30T20:21:22.118Z,3.17
2023-01-30T20:23:49.232Z,5.93
2023-01-30T20:26:19.208Z,1.90
2023-01-30T20:28:46.009Z,2.47
2023-01-30T20:31:15.553Z,3.03
2023-01-30T20:33:42.822Z,3.45
2023-01-30T20:36:12.964Z,6.00
2023-01-30T20:38:42.425Z,3.05
2023-01-30T20:41:20.823Z,3.80
2023-01-30T20:43:50.914Z,4.53
2023-01-30T20:46:27.161Z,3.15
2023-01-30T20:48:58.947Z,5.72
2023-01-30T20:51:28.099Z,4.47
2023-01-30T20:53:57.812Z,5.70
2023-01-30T20:56:27.389Z,3.55
2023-01-30T20:58:53.995Z,4.50
2023-01-30T21:01:23.170Z,4.03
2023-01-30T21:03:52.274Z,2.65
2023-01-30T21:06:37.092Z,3.92
2023-01-30T21:09:15.876Z,3.85
2023-01-30T21:11:42.651Z,2.75
2023-01-30T21:14:09.271Z,8.82
2023-01-30T21:16:37.068Z,3.70
2023-01-30T21:19:06.887Z,5.90
2023-01-30T21:21:37.669Z,4.55
2023-01-30T21:24:09.447Z,5.50
2023-01-30T21:26:38.265Z,7.55
2023-01-30T21:29:06.805Z,5.93
2023-01-30T21:31:34.719Z,4.10
2023-01-30T21:34:01.732Z,3.58
2023-01-30T21:36:29.197Z,4.18
2023-01-30T21:39:14.867Z,9.27
2023-01-30T21:42:02.256Z,6.45
2023-01-30T21:44:37.122Z,5.30
2023-01-30T21:47:05.499Z,5.30
2023-01-30T21:49:33.093Z,3.67
2023-01-30T21:52:00.049Z,3.25
2023-01-30T21:54:26.787Z,6.75
2023-01-30T21:56:56.891Z,5.47
2023-01-30T21:59:23.584Z,8.70
2023-01-30T22:01:50.259Z,5.80
2023-01-30T22:04:16.882Z,4.40
2023-01-30T22:06:43.878Z,3.88
2023-01-30T22:09:15.054Z,8.15
2023-01-30T22:11:42.318Z,5.68
2023-01-30T22:14:09.512Z,7.57
2023-01-30T22:16:36.297Z,6.78
2023-01-30T22:19:04.745Z,4.95
2023-01-30T22:21:36.222Z,4.72
2023-01-30T22:24:05.491Z,6.03
2023-01-30T22:26:33.705Z,11.57
2023-01-30T22:29:01.992Z,8.60
2023-01-30T22:31:38.515Z,6.97
2023-01-30T22:34:05.439Z,13.48
2023-01-30T22:36:33.952Z,5.53
2023-01-30T22:39:01.624Z,5.28
2023-01-30T22:41:32.166Z,3.97
2023-01-30T22:44:00.193Z,7.43
2023-01-30T22:46:31.322Z,3.28
2023-01-30T22:48:59.763Z,4.28
2023-01-30T22:51:28.582Z,4.63
2023-01-30T22:53:57.913Z,2.42
2023-01-30T22:56:30.600Z,7.10
2023-01-30T22:58:57.608Z,3.70
2023-01-30T23:01:28.327Z,4.57
2023-01-30T23:03:58.037Z,2.40
2023-01-30T23:06:25.559Z,4.50
2023-01-30T23:08:54.298Z,5.18
2023-01-30T23:11:22.939Z,4.32
2023-01-30T23:13:51.656Z,3.85
2023-01-30T23:16:21.168Z,8.10
2023-01-30T23:18:58.538Z,3.53
2023-01-30T23:21:31.759Z,4.25
2023-01-30T23:24:00.755Z,2.63
2023-01-30T23:26:30.887Z,3.97
2023-01-30T23:28:58.341Z,6.00
2023-01-30T23:31:26.521Z,7.22
2023-01-30T23:34:03.998Z,3.30
2023-01-30T23:36:31.155Z,2.95
2023-01-30T23:38:59.327Z,4.78
2023-01-30T23:41:28.853Z,2.95
2023-01-30T23:43:56.545Z,3.42
2023-01-30T23:46:24.709Z,3.22
2023-01-30T23:48:54.025Z,2.97
2023-01-30T23:51:23.415Z,3.35
